Time;durP1;ratioP1;P1;durP2;ratioP2;P2;SDS_P1;SDS_P2;PMS_P1;PMS_P2;Temp;Humidity;BMP_temperature;BMP_pressure;BME280_temperature;BME280_humidity;BME280_pressure;Samples;Min_cycle;Max_cycle;Signal;HPM_P1;HPM_P2
2023/04/09 00:01:53;;;;;;;;;;;;;;;12.95;64.76;101122.97;4955415;29;19914;-77
2023/04/09 00:04:46;;;;;;;;;;;;;;;12.99;64.59;101117.66;4955292;28;19914;-77
2023/04/09 00:07:38;;;;;;;;;;;;;;;12.95;64.83;101122.16;4959745;28;19914;-77
2023/04/09 00:10:30;;;;;;;;;;;;;;;13.01;64.51;101115.41;4955083;28;19919;-77
2023/04/09 00:13:22;;;;;;;;;;;;;;;12.96;65.07;101119.09;4955454;28;19918;-77
2023/04/09 00:16:11;;;;;;;;;;;;;;;13.07;64.39;101119.56;4955082;28;19914;-76
2023/04/09 00:19:03;;;;;;;;;;;;;;;13.13;64.67;101118.31;4955290;29;19914;-77
2023/04/09 00:21:55;;;;;;;;;;;;;;;13.09;65.33;101122.81;4954516;28;19914;-77
2023/04/09 00:24:47;;;;;;;;;;;;;;;13.08;65.84;101123.91;4954748;28;19914;-76
2023/04/09 00:27:39;;;;;;;;;;;;;;;13.07;64.43;101119.56;4954809;28;19914;-76
2023/04/09 00:30:32;;;;;;;;;;;;;;;13.07;64.89;101119.56;4955136;28;19923;-76
2023/04/09 00:33:24;;;;;;;;;;;;;;;12.96;65.19;101127.28;4927507;29;19919;-76
2023/04/09 00:36:13;;;;;;;;;;;;;;;12.96;65.16;101121.00;4935517;29;19914;-77
2023/04/09 00:39:06;;;;;;;;;;;;;;;13.00;64.54;101127.47;4935652;29;19915;-76
2023/04/09 00:42:01;;;;;;;;;;;;;;;13.11;63.84;101117.81;4935368;29;19915;-76
2023/04/09 00:44:53;;;;;;;;;;;;;;;13.11;63.71;101118.63;4934152;29;19914;-77
2023/04/09 00:47:45;;;;;;;;;;;;;;;13.15;64.12;101129.75;4938334;29;19915;-77
2023/04/09 00:50:37;;;;;;;;;;;;;;;13.11;63.34;101128.72;4935154;29;19915;-77
2023/04/09 00:53:29;;;;;;;;;;;;;;;12.95;63.76;101127.63;4939186;29;19919;-77
2023/04/09 00:56:23;;;;;;;;;;;;;;;12.93;63.78;101127.13;4937572;29;20386;-77
2023/04/09 00:59:14;;;;;;;;;;;;;;;12.87;63.58;101126.47;4935368;29;19915;-77
2023/04/09 01:02:07;;;;;;;;;;;;;;;12.89;61.88;101124.25;4935163;29;19915;-77
2023/04/09 01:05:00;;;;;;;;;;;;;;;12.93;61.76;101121.66;4935250;29;19914;-77
2023/04/09 01:07:55;;;;;;;;;;;;;;;12.93;61.53;101129.88;4935163;29;19915;-77
2023/04/09 01:11:08;;;;;;;;;;;;;;;12.84;61.52;101124.41;4937672;29;20387;-77
2023/04/09 01:14:06;;;;;;;;;;;;;;;12.79;62.36;101124.56;4934986;29;19919;-77
2023/04/09 01:16:59;;;;;;;;;;;;;;;12.79;61.83;101130.81;4937890;29;19918;-77
2023/04/09 01:19:59;;;;;;;;;;;;;;;12.82;61.58;101126.63;4935796;29;19919;-77
2023/04/09 01:23:08;;;;;;;;;;;;;;;12.72;62.84;101129.69;4935224;29;19915;-77
2023/04/09 01:26:07;;;;;;;;;;;;;;;12.67;62.42;101130.63;4935063;29;19914;-77
2023/04/09 01:29:24;;;;;;;;;;;;;;;12.80;62.25;101139.78;4938831;29;19915;-77
2023/04/09 01:32:17;;;;;;;;;;;;;;;12.74;62.21;101144.63;4935686;29;20322;-77
2023/04/09 01:35:08;;;;;;;;;;;;;;;12.71;62.71;101145.25;4934678;29;19914;-77
2023/04/09 01:38:01;;;;;;;;;;;;;;;12.68;63.42;101145.91;4937229;29;20378;-77
2023/04/09 01:40:53;;;;;;;;;;;;;;;12.63;63.42;101143.31;4934981;29;19915;-77
2023/04/09 01:43:46;;;;;;;;;;;;;;;12.69;63.34;101142.06;4935742;29;20290;-77
2023/04/09 01:46:40;;;;;;;;;;;;;;;12.64;63.83;101142.19;4939293;29;19919;-77
2023/04/09 01:49:33;;;;;;;;;;;;;;;12.58;64.45;101143.47;4938880;29;19915;-77
2023/04/09 01:52:22;;;;;;;;;;;;;;;12.59;63.88;101142.34;4939391;29;19918;-77
2023/04/09 01:55:14;;;;;;;;;;;;;;;12.57;64.01;101138.31;4938440;29;19914;-77
2023/04/09 01:58:04;;;;;;;;;;;;;;;12.60;64.17;101146.66;4942807;29;20367;-77
2023/04/09 02:00:57;;;;;;;;;;;;;;;12.54;64.42;101147.97;4940236;29;19915;-77
2023/04/09 02:03:55;;;;;;;;;;;;;;;12.56;63.96;101145.69;4938205;29;20286;-76
2023/04/09 02:06:47;;;;;;;;;;;;;;;12.57;63.23;101150.03;4938417;29;19915;-76
2023/04/09 02:09:40;;;;;;;;;;;;;;;12.54;63.68;101152.59;4938221;29;19922;-76
2023/04/09 02:12:32;;;;;;;;;;;;;;;12.58;63.29;101157.09;4942764;29;19918;-76
2023/04/09 02:15:25;;;;;;;;;;;;;;;12.58;62.83;101151.66;4942197;29;19914;-76
2023/04/09 02:18:26;;;;;;;;;;;;;;;12.50;62.97;101151.63;4938178;29;20386;-77
2023/04/09 02:21:18;;;;;;;;;;;;;;;12.53;62.59;101154.53;4937822;29;19919;-76
2023/04/09 02:24:09;;;;;;;;;;;;;;;12.56;63.19;101153.06;4940269;29;19915;-76
2023/04/09 02:27:02;;;;;;;;;;;;;;;12.65;62.82;101151.16;4938766;29;19914;-76
2023/04/09 02:29:56;;;;;;;;;;;;;;;12.75;62.59;101162.59;4937659;29;19915;-76
2023/04/09 02:32:48;;;;;;;;;;;;;;;12.82;62.33;101157.47;4939426;29;19922;-76
2023/04/09 02:35:40;;;;;;;;;;;;;;;12.81;62.39;101160.50;4937666;29;19914;-76
2023/04/09 02:38:32;;;;;;;;;;;;;;;12.58;63.66;101167.22;4944030;29;19915;-78
2023/04/09 02:41:24;;;;;;;;;;;;;;;12.55;64.29;101163.19;4941640;29;19914;-78
2023/04/09 02:44:16;;;;;;;;;;;;;;;12.53;64.23;101159.97;4941905;29;19914;-78
2023/04/09 02:47:08;;;;;;;;;;;;;;;12.55;63.95;101163.19;4944918;29;19914;-78
2023/04/09 02:49:59;;;;;;;;;;;;;;;12.51;64.66;101159.50;4937419;29;19915;-75
2023/04/09 02:52:52;;;;;;;;;;;;;;;12.53;64.58;101168.16;4941437;29;20363;-77
2023/04/09 02:55:44;;;;;;;;;;;;;;;12.39;64.29;101153.84;4939327;29;20298;-77
2023/04/09 02:58:36;;;;;;;;;;;;;;;12.40;65.03;101153.53;4936974;29;19915;-76
2023/04/09 03:01:25;;;;;;;;;;;;;;;12.56;65.22;101147.63;4937115;29;19915;-76
2023/04/09 03:04:17;;;;;;;;;;;;;;;12.54;65.86;101161.59;4938354;29;19915;-77
2023/04/09 03:07:09;;;;;;;;;;;;;;;12.45;64.95;101158.03;4937264;29;19918;-76
2023/04/09 03:09:58;;;;;;;;;;;;;;;12.47;65.32;101161.25;4936972;29;19919;-77
2023/04/09 03:12:48;;;;;;;;;;;;;;;12.42;65.47;101161.41;4937454;29;20367;-76
2023/04/09 03:15:40;;;;;;;;;;;;;;;12.41;65.42;101154.31;4937113;29;19915;-77
2023/04/09 03:18:32;;;;;;;;;;;;;;;12.41;65.91;101157.06;4939262;29;19915;-76
2023/04/09 03:21:24;;;;;;;;;;;;;;;12.33;66.47;101153.19;4936661;29;19914;-76
2023/04/09 03:24:16;;;;;;;;;;;;;;;12.33;66.30;101152.38;4936677;29;19915;-77
2023/04/09 03:27:06;;;;;;;;;;;;;;;12.36;65.17;101154.47;4938086;29;19919;-76
2023/04/09 03:30:01;;;;;;;;;;;;;;;12.36;65.85;101158.00;4935997;29;19934;-77
2023/04/09 03:32:58;;;;;;;;;;;;;;;12.31;65.78;101151.88;4936733;29;20386;-77
2023/04/09 03:35:50;;;;;;;;;;;;;;;12.32;66.05;101157.03;4936913;29;19919;-77
2023/04/09 03:38:45;;;;;;;;;;;;;;;12.38;65.79;101161.22;4940587;29;19914;-77
2023/04/09 03:41:46;;;;;;;;;;;;;;;12.35;66.65;101155.59;4937723;29;19915;-77
2023/04/09 03:44:38;;;;;;;;;;;;;;;12.23;67.15;101150.75;4935865;29;19918;-77
2023/04/09 03:47:26;;;;;;;;;;;;;;;12.22;66.70;101160.03;4939222;29;19915;-77
2023/04/09 03:50:18;;;;;;;;;;;;;;;12.26;66.47;101154.75;4937288;29;19918;-77
2023/04/09 03:53:12;;;;;;;;;;;;;;;12.20;66.26;101148.63;4940462;29;20290;-77
2023/04/09 03:56:02;;;;;;;;;;;;;;;12.30;66.73;101148.34;4938404;29;19914;-77
2023/04/09 03:58:56;;;;;;;;;;;;;;;12.24;66.54;101148.84;4936308;29;20298;-77
2023/04/09 04:01:54;;;;;;;;;;;;;;;12.20;66.86;101156.00;4939354;29;19914;-77
2023/04/09 04:04:46;;;;;;;;;;;;;;;12.22;66.71;101149.13;4936791;29;19915;-77
2023/04/09 04:07:38;;;;;;;;;;;;;;;12.13;66.87;101150.22;4940236;29;19918;-77
2023/04/09 04:10:35;;;;;;;;;;;;;;;12.04;67.37;101154.84;4938129;29;19915;-77
2023/04/09 04:13:28;;;;;;;;;;;;;;;12.02;67.22;101154.34;4935849;29;19918;-77
2023/04/09 04:16:19;;;;;;;;;;;;;;;12.04;67.77;101152.13;4944888;28;19914;-77
2023/04/09 04:19:12;;;;;;;;;;;;;;;12.11;67.19;101152.44;4956700;28;20406;-77
2023/04/09 04:22:07;;;;;;;;;;;;;;;12.12;66.86;101164.97;4953954;28;19918;-77
2023/04/09 04:25:01;;;;;;;;;;;;;;;12.09;66.88;101160.94;4943806;28;19914;-77
2023/04/09 04:27:53;;;;;;;;;;;;;;;12.10;66.92;101161.75;4936184;29;19914;-77
2023/04/09 04:30:46;;;;;;;;;;;;;;;12.13;66.73;101163.84;4939293;29;19914;-76
2023/04/09 04:33:37;;;;;;;;;;;;;;;12.11;66.82;101163.34;4937372;29;20539;-77
2023/04/09 04:36:32;;;;;;;;;;;;;;;12.09;66.79;101165.63;4935370;29;19915;-77
2023/04/09 04:39:24;;;;;;;;;;;;;;;12.05;66.96;101175.50;4938705;29;19915;-77
2023/04/09 04:42:22;;;;;;;;;;;;;;;11.99;67.53;101185.75;4936121;29;19915;-77
2023/04/09 04:45:12;;;;;;;;;;;;;;;12.03;67.61;101184.03;4934968;29;20371;-77
2023/04/09 04:48:14;;;;;;;;;;;;;;;11.97;67.33;101180.63;4937816;29;19915;-77
2023/04/09 04:51:06;;;;;;;;;;;;;;;12.00;68.17;101182.72;4930197;29;20302;-77
2023/04/09 04:54:00;;;;;;;;;;;;;;;11.94;68.03;101186.69;4932538;29;19918;-77
2023/04/09 04:56:53;;;;;;;;;;;;;;;11.83;68.67;101181.84;4939051;29;19915;-77
2023/04/09 05:00:02;;;;;;;;;;;;;;;12.04;67.93;101193.00;4933099;29;19915;-77
2023/04/09 05:02:52;;;;;;;;;;;;;;;12.12;67.42;101184.88;4918270;29;20291;-77
2023/04/09 05:05:45;;;;;;;;;;;;;;;12.10;67.10;101184.34;4925466;29;19915;-78
2023/04/09 05:08:37;;;;;;;;;;;;;;;12.07;67.69;101195.09;4939433;29;19915;-78
2023/04/09 05:11:30;;;;;;;;;;;;;;;12.17;66.77;101195.63;4941238;29;19915;-78
2023/04/09 05:14:19;;;;;;;;;;;;;;;12.14;66.91;101206.38;4925280;29;19919;-78
2023/04/09 05:17:08;;;;;;;;;;;;;;;12.12;67.22;101208.59;4926178;29;19915;-78
2023/04/09 05:20:05;;;;;;;;;;;;;;;12.19;67.05;101215.19;4924220;29;19914;-78
2023/04/09 05:23:21;;;;;;;;;;;;;;;12.28;66.48;101212.53;4929652;29;19923;-78
2023/04/09 05:26:13;;;;;;;;;;;;;;;12.29;65.26;101214.13;4968653;23;19923;-77
2023/04/09 05:29:16;;;;;;;;;;;;;;;12.21;66.25;101212.97;4939455;29;19918;-76
2023/04/09 05:32:08;;;;;;;;;;;;;;;12.15;66.35;101207.94;4939122;29;19919;-76
2023/04/09 05:35:00;;;;;;;;;;;;;;;12.03;65.87;101208.56;4940712;29;19919;-77
2023/04/09 05:37:52;;;;;;;;;;;;;;;12.05;66.04;101208.22;4946450;28;19915;-75
2023/04/09 05:40:44;;;;;;;;;;;;;;;12.14;65.70;101203.63;4949491;28;19915;-76
2023/04/09 05:43:36;;;;;;;;;;;;;;;12.21;65.30;101206.69;4947927;28;19915;-76
2023/04/09 05:46:28;;;;;;;;;;;;;;;12.23;65.69;101215.38;4945815;28;19919;-76
2023/04/09 05:49:20;;;;;;;;;;;;;;;12.10;65.09;101222.53;4948795;28;19923;-76
2023/04/09 05:52:13;;;;;;;;;;;;;;;12.09;64.76;101211.97;4946498;28;19915;-76
2023/04/09 05:55:05;;;;;;;;;;;;;;;12.11;64.30;101217.88;4950209;28;20367;-77
2023/04/09 05:58:14;;;;;;;;;;;;;;;12.17;63.60;101213.91;4921392;29;19919;-76
2023/04/09 06:01:06;;;;;;;;;;;;;;;12.26;62.87;101222.94;4918957;29;19919;-77
2023/04/09 06:03:56;;;;;;;;;;;;;;;12.27;62.30;101221.81;4919524;29;19919;-76
2023/04/09 06:06:50;;;;;;;;;;;;;;;12.18;62.53;101221.78;4946353;28;19919;-77
2023/04/09 06:09:42;;;;;;;;;;;;;;;12.36;61.90;101226.19;4949775;28;19915;-77
2023/04/09 06:12:35;;;;;;;;;;;;;;;12.39;61.47;101232.94;4947988;28;19915;-77
2023/04/09 06:15:25;;;;;;;;;;;;;;;12.32;61.19;101232.59;4918506;29;19919;-77
2023/04/09 06:18:17;;;;;;;;;;;;;;;12.24;61.23;101227.91;4918979;29;19915;-76
2023/04/09 06:21:12;;;;;;;;;;;;;;;12.40;60.36;101234.53;4946610;28;19915;-76
2023/04/09 06:24:04;;;;;;;;;;;;;;;12.37;59.94;101237.91;4918937;29;20298;-77
2023/04/09 06:26:56;;;;;;;;;;;;;;;12.38;59.77;101244.97;4918718;29;19915;-76
2023/04/09 06:29:47;;;;;;;;;;;;;;;12.48;58.94;101239.25;4918696;29;20379;-76
2023/04/09 06:32:37;;;;;;;;;;;;;;;12.57;59.25;101240.06;4919082;29;19915;-76
2023/04/09 06:35:29;;;;;;;;;;;;;;;12.50;57.73;101241.63;4918686;29;20379;-77
2023/04/09 06:38:18;;;;;;;;;;;;;;;12.66;57.74;101240.09;4916201;29;20291;-76
2023/04/09 06:41:10;;;;;;;;;;;;;;;12.73;57.17;101243.97;4899512;29;19915;-77
2023/04/09 06:44:02;;;;;;;;;;;;;;;12.69;57.52;101245.75;4899713;29;19915;-77
2023/04/09 06:46:54;;;;;;;;;;;;;;;12.64;56.32;101248.63;4912717;29;19914;-77
2023/04/09 06:49:43;;;;;;;;;;;;;;;12.63;56.40;101249.72;4920398;29;19915;-77
2023/04/09 06:52:35;;;;;;;;;;;;;;;12.77;56.76;101255.88;4947610;28;19915;-77
2023/04/09 06:55:27;;;;;;;;;;;;;;;12.85;56.02;101260.53;4924114;29;20295;-77
2023/04/09 06:58:19;;;;;;;;;;;;;;;12.79;55.27;101261.81;4930174;29;19915;-77
2023/04/09 07:01:11;;;;;;;;;;;;;;;12.73;55.50;101265.81;4927372;29;20379;-77
2023/04/09 07:04:01;;;;;;;;;;;;;;;12.79;55.25;101272.75;4931308;29;19915;-77
2023/04/09 07:06:53;;;;;;;;;;;;;;;12.57;55.19;101269.28;4901525;29;19915;-77
2023/04/09 07:09:45;;;;;;;;;;;;;;;12.65;55.31;101266.56;4901418;29;19919;-77
2023/04/09 07:12:35;;;;;;;;;;;;;;;12.75;55.61;101271.75;4930684;29;19915;-78
2023/04/09 07:15:27;;;;;;;;;;;;;;;12.76;55.30;101273.34;4932436;29;20382;-76
2023/04/09 07:18:19;;;;;;;;;;;;;;;12.82;53.91;101277.56;4916180;29;20379;-77
2023/04/09 07:21:11;;;;;;;;;;;;;;;12.91;54.82;101271.31;4945927;28;19915;-77
2023/04/09 07:24:03;;;;;;;;;;;;;;;13.01;53.46;101276.47;4915904;29;19915;-77
2023/04/09 07:26:55;;;;;;;;;;;;;;;12.91;52.85;101279.50;4942472;28;19922;-76
2023/04/09 07:29:47;;;;;;;;;;;;;;;12.84;51.87;101279.97;4914862;29;19915;-76
2023/04/09 07:32:39;;;;;;;;;;;;;;;12.92;51.89;101286.56;4915982;29;19915;-76
2023/04/09 07:35:31;;;;;;;;;;;;;;;12.96;51.88;101279.34;4915703;29;19919;-76
2023/04/09 07:38:23;;;;;;;;;;;;;;;13.00;52.73;101283.06;4917289;29;19915;-77
2023/04/09 07:41:15;;;;;;;;;;;;;;;12.94;52.33;101296.06;4912769;29;19915;-77
2023/04/09 07:44:08;;;;;;;;;;;;;;;12.86;51.39;101289.44;4919524;29;20290;-77
2023/04/09 07:47:00;;;;;;;;;;;;;;;12.96;52.75;101296.53;4918311;29;19915;-77
2023/04/09 07:49:52;;;;;;;;;;;;;;;13.11;52.68;101303.47;4917958;29;19915;-77
2023/04/09 07:52:46;;;;;;;;;;;;;;;13.25;52.55;101298.75;4918811;29;19915;-76
2023/04/09 07:55:35;;;;;;;;;;;;;;;13.37;52.19;101296.16;4916982;29;19927;-76
2023/04/09 07:58:27;;;;;;;;;;;;;;;13.30;52.16;101298.59;4917339;29;20302;-76
2023/04/09 08:01:20;;;;;;;;;;;;;;;13.31;51.52;101308.38;4916746;29;20279;-75
2023/04/09 08:04:12;;;;;;;;;;;;;;;13.27;51.12;101307.41;4917005;29;19915;-76
2023/04/09 08:07:02;;;;;;;;;;;;;;;13.30;50.47;101309.53;4916966;29;20307;-76
2023/04/09 08:09:54;;;;;;;;;;;;;;;13.20;50.45;101305.16;4916658;29;19915;-76
2023/04/09 08:12:46;;;;;;;;;;;;;;;13.35;50.35;101305.81;4916825;29;19915;-76
2023/04/09 08:15:38;;;;;;;;;;;;;;;13.50;50.19;101317.09;4915852;29;19919;-76
2023/04/09 08:18:28;;;;;;;;;;;;;;;13.57;49.81;101319.34;4916917;29;19914;-76
2023/04/09 08:21:20;;;;;;;;;;;;;;;13.75;49.58;101315.50;4916068;29;20386;-76
2023/04/09 08:24:11;;;;;;;;;;;;;;;13.84;49.52;101312.75;4947152;28;20294;-77
2023/04/09 08:27:03;;;;;;;;;;;;;;;13.86;48.78;101322.25;4916733;29;19915;-77
2023/04/09 08:29:55;;;;;;;;;;;;;;;13.86;48.60;101322.25;4919144;29;20375;-76
2023/04/09 08:32:47;;;;;;;;;;;;;;;14.05;49.19;101335.59;4915721;29;19915;-78
2023/04/09 08:35:39;;;;;;;;;;;;;;;14.03;48.47;101335.09;4919602;29;19919;-78
2023/04/09 08:38:31;;;;;;;;;;;;;;;13.93;47.59;101327.22;4953046;28;20375;-78
2023/04/09 08:41:23;;;;;;;;;;;;;;;13.91;47.47;101333.03;4938261;28;20311;-79
2023/04/09 08:44:15;;;;;;;;;;;;;;;13.81;48.04;101329.81;4941920;28;19915;-77
2023/04/09 08:47:07;;;;;;;;;;;;;;;13.88;47.79;101324.66;4913606;29;19915;-80
2023/04/09 08:49:58;;;;;;;;;;;;;;;13.93;48.11;101328.03;4915520;29;19915;-79
2023/04/09 08:52:50;;;;;;;;;;;;;;;14.02;47.40;101330.75;4918389;29;19915;-77
2023/04/09 08:55:42;;;;;;;;;;;;;;;14.08;47.14;101334.94;4916963;29;19919;-77
2023/04/09 08:58:34;;;;;;;;;;;;;;;14.10;47.41;101335.44;4918254;29;19914;-76
2023/04/09 09:01:24;;;;;;;;;;;;;;;14.18;48.21;101328.31;4915466;29;19922;-77
2023/04/09 09:04:16;;;;;;;;;;;;;;;14.14;47.72;101333.63;4917226;29;20279;-76
2023/04/09 09:07:05;;;;;;;;;;;;;;;14.35;47.09;101326.38;4941692;28;19915;-77
2023/04/09 09:09:58;;;;;;;;;;;;;;;14.67;45.72;101327.75;4916993;29;19919;-77
2023/04/09 09:12:46;;;;;;;;;;;;;;;14.87;46.19;101327.03;4945780;28;19919;-77
2023/04/09 09:15:37;;;;;;;;;;;;;;;15.02;45.58;101322.13;4916618;29;19918;-77
2023/04/09 09:18:47;;;;;;;;;;;;;;;15.15;45.52;101334.78;4948122;28;19915;-78
2023/04/09 09:21:40;;;;;;;;;;;;;;;15.18;44.91;101334.94;4918829;29;19915;-77
2023/04/09 09:24:29;;;;;;;;;;;;;;;15.23;44.87;101334.75;4922017;29;19915;-77
2023/04/09 09:27:39;;;;;;;;;;;;;;;15.28;43.96;101328.28;4916279;29;19915;-77
2023/04/09 09:30:31;;;;;;;;;;;;;;;15.25;43.99;101329.72;4949697;29;19922;-77
2023/04/09 09:33:20;;;;;;;;;;;;;;;15.27;43.67;101321.19;4916548;29;20363;-77
2023/04/09 09:36:12;;;;;;;;;;;;;;;15.24;43.59;101325.38;4917636;29;19919;-77
2023/04/09 09:39:08;;;;;;;;;;;;;;;15.42;43.03;101326.09;4918648;29;19919;-77
2023/04/09 09:42:08;;;;;;;;;;;;;;;15.61;43.28;101314.69;4916308;29;19915;-77
2023/04/09 09:44:58;;;;;;;;;;;;;;;15.76;42.42;101322.31;4915699;29;19919;-80
2023/04/09 09:47:48;;;;;;;;;;;;;;;15.85;41.58;101325.78;4920042;29;19915;-78
2023/04/09 09:50:40;;;;;;;;;;;;;;;15.87;42.13;101329.00;4915582;29;19915;-77
2023/04/09 09:53:33;;;;;;;;;;;;;;;15.69;41.15;101322.06;4914312;29;19915;-77
2023/04/09 09:56:25;;;;;;;;;;;;;;;15.75;41.98;101317.94;4914721;29;19915;-77
2023/04/09 09:59:20;;;;;;;;;;;;;;;15.67;42.43;101313.34;4922033;29;19915;-78
2023/04/09 10:02:19;;;;;;;;;;;;;;;15.83;42.04;101309.69;4919501;29;19915;-77
2023/04/09 10:05:10;;;;;;;;;;;;;;;16.02;42.54;101320.16;4943792;29;19919;-78
2023/04/09 10:08:03;;;;;;;;;;;;;;;16.24;42.22;101318.97;4917236;29;19915;-75
2023/04/09 10:10:55;;;;;;;;;;;;;;;16.35;41.12;101313.88;4922005;29;19915;-77
2023/04/09 10:13:49;;;;;;;;;;;;;;;16.37;40.22;101317.84;4920536;29;19915;-79
2023/04/09 10:16:39;;;;;;;;;;;;;;;16.41;40.67;101317.97;4918915;29;19919;-78
2023/04/09 10:19:28;;;;;;;;;;;;;;;16.47;41.46;101313.88;4919058;29;19923;-77
2023/04/09 10:22:21;;;;;;;;;;;;;;;16.33;41.79;101316.13;4916781;29;19915;-77
2023/04/09 10:25:13;;;;;;;;;;;;;;;16.40;41.13;101311.72;4949501;28;19915;-77
2023/04/09 10:28:15;;;;;;;;;;;;;;;16.39;40.85;101303.81;4915737;29;20006;-78
2023/04/09 10:31:05;;;;;;;;;;;;;;;16.62;41.61;101311.31;4943528;28;19914;-77
2023/04/09 10:34:05;;;;;;;;;;;;;;;16.67;40.79;101307.53;4911019;29;20524;-77
2023/04/09 10:36:57;;;;;;;;;;;;;;;16.86;40.59;101305.03;4919579;29;19914;-77
2023/04/09 10:39:50;;;;;;;;;;;;;;;17.03;40.54;101295.75;4913965;29;19922;-76
2023/04/09 10:42:40;;;;;;;;;;;;;;;16.99;39.23;101292.91;4913801;29;19923;-77
2023/04/09 10:45:41;;;;;;;;;;;;;;;16.91;39.70;101299.31;4917115;29;19915;-76
2023/04/09 10:48:33;;;;;;;;;;;;;;;16.86;39.61;101299.56;4910433;29;19923;-77
2023/04/09 10:51:22;;;;;;;;;;;;;;;16.81;39.71;101297.00;4913727;29;19916;-77
2023/04/09 10:54:28;;;;;;;;;;;;;;;16.72;39.21;101293.56;4912440;29;19919;-76
2023/04/09 10:57:19;;;;;;;;;;;;;;;16.72;39.46;101279.84;4909553;29;19915;-76
2023/04/09 11:00:09;;;;;;;;;;;;;;;16.92;39.13;101281.66;4949613;28;20159;-76
2023/04/09 11:03:08;;;;;;;;;;;;;;;16.95;39.57;101283.75;4908736;29;19928;-76
2023/04/09 11:06:09;;;;;;;;;;;;;;;16.98;39.95;101280.31;4911055;29;19923;-76
2023/04/09 11:09:03;;;;;;;;;;;;;;;17.10;39.06;101282.25;4918257;29;20295;-76
2023/04/09 11:11:53;;;;;;;;;;;;;;;17.18;39.08;101280.50;4903619;29;19915;-76
2023/04/09 11:14:45;;;;;;;;;;;;;;;17.18;38.77;101283.25;4938034;28;19919;-76
2023/04/09 11:17:37;;;;;;;;;;;;;;;17.25;38.33;101273.28;4917893;29;19915;-77
2023/04/09 11:20:29;;;;;;;;;;;;;;;17.38;37.66;101268.56;4938188;29;19926;-78
2023/04/09 11:23:21;;;;;;;;;;;;;;;17.46;37.19;101270.38;4951404;28;19915;-77
2023/04/09 11:26:13;;;;;;;;;;;;;;;17.37;37.12;101275.22;4945376;23;19915;-82
2023/04/09 11:29:12;;;;;;;;;;;;;;;17.19;37.19;101274.66;4944178;29;19922;-79
2023/04/09 11:32:04;;;;;;;;;;;;;;;17.28;37.92;101272.59;4941647;29;20374;-81
2023/04/09 11:34:55;;;;;;;;;;;;;;;17.36;37.08;101273.63;4946018;29;19919;-82
2023/04/09 11:37:45;;;;;;;;;;;;;;;17.52;36.96;101266.25;4941787;29;19914;-81
2023/04/09 11:40:35;;;;;;;;;;;;;;;17.59;36.73;101268.38;4935717;29;19915;-81
2023/04/09 11:43:28;;;;;;;;;;;;;;;17.52;37.27;101267.03;4940890;29;19914;-81
2023/04/09 11:46:20;;;;;;;;;;;;;;;17.65;37.32;101262.31;4921342;29;19918;-81
2023/04/09 11:49:12;;;;;;;;;;;;;;;17.74;36.20;101262.97;4920636;29;19927;-80
2023/04/09 11:52:04;;;;;;;;;;;;;;;17.76;37.01;101260.69;4924107;29;19922;-81
2023/04/09 11:55:00;;;;;;;;;;;;;;;17.79;36.51;101254.47;4921191;29;20387;-81
2023/04/09 11:57:52;;;;;;;;;;;;;;;17.87;36.50;101250.78;4931132;29;19918;-81
2023/04/09 12:00:44;;;;;;;;;;;;;;;18.04;36.70;101259.84;4957200;28;19914;-79
2023/04/09 12:03:36;;;;;;;;;;;;;;;18.05;36.05;101250.44;4934530;29;19915;-81
2023/04/09 12:06:28;;;;;;;;;;;;;;;18.02;36.92;101253.91;4940339;29;20294;-80
2023/04/09 12:09:18;;;;;;;;;;;;;;;18.15;36.22;101249.94;4939656;29;19918;-79
2023/04/09 12:12:10;;;;;;;;;;;;;;;18.16;36.22;101251.53;4935371;29;19923;-79
2023/04/09 12:15:07;;;;;;;;;;;;;;;18.21;36.42;101248.53;4958332;28;20391;-81
2023/04/09 12:17:59;;;;;;;;;;;;;;;18.17;36.00;101239.38;4940238;29;19915;-82
2023/04/09 12:20:51;;;;;;;;;;;;;;;18.10;36.55;101239.97;4924662;29;19915;-79
2023/04/09 12:23:43;;;;;;;;;;;;;;;18.09;36.16;101238.38;4934624;29;20387;-82
2023/04/09 12:26:35;;;;;;;;;;;;;;;18.17;36.50;101236.63;4938384;29;19914;-81
2023/04/09 12:29:27;;;;;;;;;;;;;;;18.25;36.06;101227.38;4936556;29;19914;-82
2023/04/09 12:32:19;;;;;;;;;;;;;;;18.22;35.90;101228.09;4937333;29;19915;-79
2023/04/09 12:35:11;;;;;;;;;;;;;;;18.17;36.61;101223.66;4943790;29;19919;-85
2023/04/09 12:38:04;;;;;;;;;;;;;;;18.34;36.41;101223.31;4966974;28;19919;-82
2023/04/09 12:40:56;;;;;;;;;;;;;;;18.41;36.61;101219.94;4935078;29;19915;-87
2023/04/09 12:43:48;;;;;;;;;;;;;;;18.49;35.76;101221.69;4934185;29;20395;-82
2023/04/09 12:46:40;;;;;;;;;;;;;;;18.52;35.63;101225.72;4940866;29;19915;-82
2023/04/09 12:49:32;;;;;;;;;;;;;;;18.55;35.84;101220.31;4940179;29;20290;-82
2023/04/09 12:52:24;;;;;;;;;;;;;;;18.29;35.75;101222.75;4940932;29;19918;-81
2023/04/09 12:55:16;;;;;;;;;;;;;;;18.18;36.27;101221.72;4938737;29;19919;-83
2023/04/09 12:58:03;;;;;;;;;;;;;;;18.28;35.85;101222.00;4967265;28;19915;-84
2023/04/09 13:00:52;;;;;;;;;;;;;;;18.32;35.76;101222.88;4943566;29;19915;-81
2023/04/09 13:03:44;;;;;;;;;;;;;;;18.39;35.70;101227.75;4941221;29;19915;-82
2023/04/09 13:06:33;;;;;;;;;;;;;;;18.61;35.56;101218.09;4944262;29;19914;-82
2023/04/09 13:09:25;;;;;;;;;;;;;;;18.45;34.97;101211.75;4927886;29;19923;-82
2023/04/09 13:12:14;;;;;;;;;;;;;;;18.44;35.06;101213.69;4929570;29;19915;-82
2023/04/09 13:15:07;;;;;;;;;;;;;;;18.36;35.70;101212.75;4940979;29;19919;-82
2023/04/09 13:17:59;;;;;;;;;;;;;;;18.50;35.15;101217.00;4940739;29;19915;-82
2023/04/09 13:20:51;;;;;;;;;;;;;;;18.16;34.89;101202.78;4939655;29;19918;-83
2023/04/09 13:23:43;;;;;;;;;;;;;;;18.18;36.31;101205.19;4941157;29;19919;-82
2023/04/09 13:26:33;;;;;;;;;;;;;;;18.22;35.46;101200.56;4921664;29;19915;-82
2023/04/09 13:29:25;;;;;;;;;;;;;;;18.03;35.30;101197.72;4922124;29;19915;-81
2023/04/09 13:32:17;;;;;;;;;;;;;;;18.09;35.42;101186.06;4921653;29;19915;-81
2023/04/09 13:35:09;;;;;;;;;;;;;;;18.22;34.92;101178.56;4922025;29;19919;-82
2023/04/09 13:38:01;;;;;;;;;;;;;;;18.18;35.75;101183.97;4922933;29;20375;-81
2023/04/09 13:40:53;;;;;;;;;;;;;;;18.21;35.08;101182.44;4922397;29;19915;-81
2023/04/09 13:43:42;;;;;;;;;;;;;;;18.21;34.54;101182.44;4925252;29;19915;-81
2023/04/09 13:46:32;;;;;;;;;;;;;;;18.09;35.17;101166.81;4928933;29;19915;-81
2023/04/09 13:49:24;;;;;;;;;;;;;;;18.05;35.74;101167.88;4928874;29;19918;-81
2023/04/09 13:52:14;;;;;;;;;;;;;;;17.97;35.46;101177.13;4937347;29;19915;-81
2023/04/09 13:55:06;;;;;;;;;;;;;;;18.02;35.90;101168.59;4946904;29;19918;-82
2023/04/09 13:57:58;;;;;;;;;;;;;;;17.88;35.98;101158.00;4938530;29;19963;-82
2023/04/09 14:00:50;;;;;;;;;;;;;;;17.98;35.36;101159.47;4944263;29;19915;-82
2023/04/09 14:03:37;;;;;;;;;;;;;;;17.93;35.63;101157.75;4939761;29;19915;-83
2023/04/09 14:06:21;;;;;;;;;;;;;;;17.69;35.71;101155.16;4938177;29;19914;-82
2023/04/09 14:09:13;;;;;;;;;;;;;;;17.62;35.99;101158.53;4934522;29;19919;-81
2023/04/09 14:12:05;;;;;;;;;;;;;;;17.71;35.68;101161.09;4930427;29;19918;-81
2023/04/09 14:14:55;;;;;;;;;;;;;;;17.80;35.55;101154.28;4944870;29;20370;-80
2023/04/09 14:17:47;;;;;;;;;;;;;;;17.78;35.83;101156.56;4959649;28;20299;-80
2023/04/09 14:20:37;;;;;;;;;;;;;;;17.64;35.63;101150.69;4941841;29;19919;-80
2023/04/09 14:23:30;;;;;;;;;;;;;;;17.59;35.29;101150.97;4937409;29;19915;-80
2023/04/09 14:26:22;;;;;;;;;;;;;;;17.56;35.86;101157.13;4942139;29;19922;-81
2023/04/09 14:29:14;;;;;;;;;;;;;;;17.60;35.56;101155.31;4946660;29;19915;-81
2023/04/09 14:32:06;;;;;;;;;;;;;;;17.55;35.47;101155.53;4947634;29;19915;-80
2023/04/09 14:34:58;;;;;;;;;;;;;;;17.61;35.51;101159.66;4936212;29;19919;-80
2023/04/09 14:37:50;;;;;;;;;;;;;;;17.69;35.29;101153.19;4945577;29;19919;-81
2023/04/09 14:40:42;;;;;;;;;;;;;;;17.72;35.45;101158.00;4945726;29;19915;-80
2023/04/09 14:43:32;;;;;;;;;;;;;;;17.59;34.99;101156.47;4937662;29;19915;-81
2023/04/09 14:46:24;;;;;;;;;;;;;;;17.65;34.76;101148.75;4937622;29;19915;-81